Bucureşti, România

01:08 AM EEST on septembrie 29, 2016 (GMT +0300)
NX Data | | Change Station

Elev 279 ft 44.48 °N, 26.12 °E | Updated 1 minute ago

Clear
Cer senin
58.8 °F
Feels Like 58.8 °F
N
7.8
Vânt variabil Vânt from vest
Gusts 7.8 mph

astăzi
High -- | Low -- °F
--% Chance of Precip.
Ieri
High -- | Low -- °F
Precip. -- inch
Presiunea 30.30 inch
Vizibilitatea -9999.0 mile
Nori
Punctul de rouă 45 °F
Umiditatea 61%
Precipitaţii 0.00 inch
Adâncimea zăpezii Not available.
7:11 AM 6:59 PM
Semilună în descreştere, 4% visible
METAR LRBS 282200Z 28002KT CAVOK 13/10 Q1026 NOSIG
Presiunea 30.30 inch
Vizibilitatea -9999.0 mile
Nori
Punctul de rouă 45 °F
Umiditatea 61%
Precipitaţii 0.00 inch
Adâncimea zăpezii Not available.
7:11 AM 6:59 PM
Semilună în descreştere, 4% visible
METAR LRBS 282200Z 28002KT CAVOK 13/10 Q1026 NOSIG

10-Day Weather Forecast

×

Almanac

Astronomie

Sep. 29, 2016 Răsărit Apus
Timpul Actual
Crepusculul Civil
Crepusculul nautic
Răsărit Astronomic
Luna
Durata zilei lumină
Lungimea zilei
Tomorrow will be .
, % of the Moon is Illuminated

Extremele de azi

Country Highs Country Lows

Community

WunderPhotos

Upload Photos

1,942,335 photos uploaded!

WunderBlog® & News

Nearby

Calitatea aerului

  Calitatea aerului Index de calitate a aerului Poluat
Not available.

Adâncimea zapezii

Station Depth Elevation

Earthquake Activity

Oraş Distance Mag. Time & Date
Minimum magnitude displayed is 2.5.

Coastal Water Temperatures

Locul Temperatura

Stations

Nearby Weather Stations

Locaţia staţiei Temp Vânt rece Punctul de rouă Umiditatea Vânt Precip. Elev Actualizare Type